Aviation Digital Data Service (ADDS)

Output produced by METARs form (0645 UTC 31 August 2015)
found at http://aviationweather.gov/adds/metars/
 
KBHB 310536Z 3106/0106 VRB03KT P6SM SCT100 
     TEMPO 3108/3111 2SM BR SCT008 
     FM311700 25010KT P6SM FEW150 
     FM010400 31006KT P6SM FEW250 AMD LTD TO CLD VIS AND WIND